Boreham, United Kingdom
Current Conditions -  °F | °C
As of 10:50 AM on Tuesday 21 Oct 2014 (Local Time) from EGDM Reporting Station
Few Clouds Few Clouds  
Wind Chill: 54°   Ceiling: Unl
Heat Index: 54°   Visibility: 6mi
Dew Point: 43°   Wind: 31mph
Humidity: 67%   Direction: 280°W
Pressure: 29.71"   Gusts: 45mph
Location:  51.2°N, 2.17°W
Report Text: EGDM 210950Z 28027G39KT 9999 FEW032 12/06 Q1006 BLU NOSIG
Loading
Personal Weather Stations






























Interactive Weather Map
Tropical Storm Tracking
New forecast layout! Learn more

10-Day Weather Forecast

Advertisements
Track Severe Weather on mobile